Terminal Aerodrome Forecast
Issued by NWS

Home | Current Version | Previous Version | Text Only | Print | Product List | Glossary On
Versions: 1 2 3 4 5 6 7 8 9 10 11 12 13 14 15 16 17 18 19 20 21 22 23 24 25 26 27 28 29 30 31 32 33 34 35 36 37 38 39 40 41 42
000
FTUS46 KEKA 212105 AAA
TAFACV
TAF AMD
KACV 212105Z 2121/2218 22006KT 1/4SM -RA FG OVC002
     FM220300 19003KT 2SM -RA BR BKN003 OVC005
     FM220700 23004KT 2SM -RA BR OVC004
     FM221000 33003KT 2SM BR OVC005=

USA.gov is the U.S. government's official web portal to all federal, state and local government web resources and services.